createdAt,value
2019-03-18T00:00:32.293Z,62.06
2019-03-18T00:03:06.736Z,62.36
2019-03-18T00:05:41.262Z,62.34
2019-03-18T00:08:15.708Z,62.35
2019-03-18T00:10:50.279Z,62.54
2019-03-18T00:13:24.689Z,62.42
2019-03-18T00:15:58.963Z,63.03
2019-03-18T00:18:33.641Z,63.03
2019-03-18T00:21:08.084Z,63.03
2019-03-18T00:23:42.331Z,62.83
2019-03-18T00:26:16.696Z,62.54
2019-03-18T00:28:51.147Z,62.54
2019-03-18T00:31:25.711Z,62.78
2019-03-18T00:33:58.691Z,62.09
2019-03-18T00:36:32.901Z,61.97
2019-03-18T00:39:08.290Z,61.67
2019-03-18T00:41:42.322Z,61.62
2019-03-18T00:44:16.722Z,61.62
2019-03-18T00:46:50.973Z,61.22
2019-03-18T00:49:26.143Z,61.22
2019-03-18T00:52:40.657Z,60.90
2019-03-18T00:55:15.344Z,60.61
2019-03-18T00:57:49.899Z,60.62
2019-03-18T01:00:22.870Z,60.65
2019-03-18T01:02:56.960Z,60.65
2019-03-18T01:05:31.278Z,60.06
2019-03-18T01:08:05.648Z,60.48
2019-03-18T01:10:41.073Z,60.31
2019-03-18T01:13:15.666Z,60.00
2019-03-18T01:15:49.948Z,60.00
2019-03-18T01:18:24.262Z,60.15
2019-03-18T01:20:58.735Z,60.10
2019-03-18T01:23:32.969Z,60.20
2019-03-18T01:26:05.805Z,59.99
2019-03-18T01:28:40.087Z,59.90
2019-03-18T01:31:14.341Z,59.92
2019-03-18T01:33:48.766Z,59.92
2019-03-18T01:36:21.696Z,60.45
2019-03-18T01:38:55.950Z,60.42
2019-03-18T01:41:28.851Z,60.79
2019-03-18T01:44:03.133Z,61.11
2019-03-18T01:46:37.509Z,61.96
2019-03-18T01:49:11.880Z,61.96
2019-03-18T01:51:44.867Z,61.97
2019-03-18T01:54:19.284Z,61.88
2019-03-18T01:56:53.698Z,61.49
2019-03-18T01:59:28.053Z,60.98
2019-03-18T02:02:02.628Z,61.04
2019-03-18T02:04:36.938Z,61.04
2019-03-18T02:07:11.284Z,61.36
2019-03-18T02:09:45.756Z,61.40
2019-03-18T02:12:19.859Z,61.77
2019-03-18T02:14:54.130Z,61.82
2019-03-18T02:17:28.716Z,61.39
2019-03-18T02:20:03.540Z,61.26
2019-03-18T02:22:37.935Z,61.34
2019-03-18T02:25:11.280Z,61.10
2019-03-18T02:27:45.304Z,60.59
2019-03-18T02:30:20.146Z,60.59
2019-03-18T02:32:54.672Z,60.89
2019-03-18T02:35:28.955Z,60.60
2019-03-18T02:38:03.331Z,60.89
2019-03-18T02:40:38.713Z,60.86
2019-03-18T02:43:13.143Z,61.09
2019-03-18T02:45:47.590Z,61.42
2019-03-18T02:48:22.068Z,61.42
2019-03-18T02:50:56.703Z,61.75
2019-03-18T02:53:31.193Z,61.75
2019-03-18T02:56:05.645Z,61.75
2019-03-18T02:58:39.950Z,61.93
2019-03-18T03:01:12.690Z,62.10
2019-03-18T03:05:34.704Z,62.46
2019-03-18T03:08:09.267Z,62.46
2019-03-18T03:10:43.749Z,62.03
2019-03-18T03:13:18.281Z,61.73
2019-03-18T03:15:52.675Z,61.92
2019-03-18T03:18:27.086Z,61.95
2019-03-18T03:21:01.627Z,61.43
2019-03-18T03:23:35.948Z,61.62
2019-03-18T03:26:10.284Z,61.11
2019-03-18T03:28:44.712Z,60.84
2019-03-18T03:31:19.958Z,60.13
2019-03-18T03:33:53.976Z,60.21
2019-03-18T03:36:28.300Z,60.23
2019-03-18T03:39:02.707Z,60.16
2019-03-18T03:41:37.284Z,59.80
2019-03-18T03:44:11.707Z,59.69
2019-03-18T03:46:46.118Z,59.56
2019-03-18T03:49:20.681Z,59.86
2019-03-18T03:51:54.953Z,60.63
2019-03-18T03:54:27.874Z,60.90
2019-03-18T03:57:02.038Z,61.17
2019-03-18T04:01:01.349Z,62.11
2019-03-18T04:03:38.505Z,62.11
2019-03-18T04:06:12.111Z,62.13
2019-03-18T04:08:46.676Z,61.81
2019-03-18T04:11:21.118Z,61.85
2019-03-18T04:13:55.586Z,62.09
2019-03-18T04:16:29.949Z,62.09
2019-03-18T04:19:02.693Z,62.18
2019-03-18T04:21:36.897Z,62.05
2019-03-18T04:24:11.122Z,61.96
2019-03-18T04:26:45.680Z,61.76
2019-03-18T04:29:22.620Z,61.67
2019-03-18T04:31:56.970Z,61.56
2019-03-18T04:34:31.315Z,60.65
2019-03-18T04:37:05.725Z,60.65
2019-03-18T04:39:40.116Z,60.65
2019-03-18T04:42:14.622Z,60.51
2019-03-18T04:44:48.947Z,60.25
2019-03-18T04:47:21.704Z,60.06
2019-03-18T04:49:56.797Z,59.89
2019-03-18T04:52:29.713Z,59.66
2019-03-18T04:55:03.942Z,59.66
2019-03-18T04:57:36.673Z,59.47
2019-03-18T05:00:11.660Z,59.72
2019-03-18T05:02:44.695Z,60.13
2019-03-18T05:05:18.946Z,60.00
2019-03-18T05:07:52.004Z,60.30
2019-03-18T05:10:24.798Z,60.45
2019-03-18T05:12:59.275Z,60.50
2019-03-18T05:15:34.888Z,60.50
2019-03-18T05:18:07.701Z,60.70
2019-03-18T05:20:42.256Z,60.41
2019-03-18T05:23:16.644Z,60.47
2019-03-18T05:25:50.946Z,60.60
2019-03-18T05:28:23.874Z,60.81
2019-03-18T05:30:58.195Z,60.97
2019-03-18T05:33:32.647Z,61.05
2019-03-18T05:36:06.944Z,60.80
2019-03-18T05:38:39.714Z,60.92
2019-03-18T05:41:13.947Z,61.34
2019-03-18T05:43:48.698Z,61.61
2019-03-18T05:46:23.273Z,61.61
2019-03-18T05:48:57.732Z,61.69
2019-03-18T05:51:32.074Z,61.40
2019-03-18T05:54:06.708Z,61.40
2019-03-18T05:56:41.066Z,61.38
2019-03-18T05:59:15.314Z,60.97
2019-03-18T06:01:49.746Z,60.97
2019-03-18T06:04:24.134Z,61.43
2019-03-18T06:06:58.661Z,61.52
2019-03-18T06:09:33.292Z,61.58
2019-03-18T06:12:07.713Z,61.33
2019-03-18T06:14:41.944Z,60.94
2019-03-18T06:17:15.302Z,60.97
2019-03-18T06:19:49.691Z,60.94
2019-03-18T06:22:24.155Z,60.67
2019-03-18T06:24:58.620Z,60.37
2019-03-18T06:27:32.946Z,60.28
2019-03-18T06:30:06.283Z,60.28
2019-03-18T06:32:40.642Z,60.18
2019-03-18T06:35:15.102Z,60.18
2019-03-18T06:37:49.687Z,60.39
2019-03-18T06:40:23.945Z,59.97
2019-03-18T06:42:56.864Z,58.24
2019-03-18T06:45:31.130Z,58.24
2019-03-18T06:48:05.767Z,57.66
2019-03-18T06:50:40.132Z,57.36
2019-03-18T06:53:14.676Z,56.17
2019-03-18T06:55:49.119Z,56.17
2019-03-18T06:58:23.751Z,54.10
2019-03-18T07:00:58.081Z,54.10
2019-03-18T07:03:32.417Z,52.44
2019-03-18T07:06:06.781Z,52.20
2019-03-18T07:08:41.124Z,52.20
2019-03-18T07:11:15.678Z,51.36
2019-03-18T07:13:50.105Z,50.36
2019-03-18T07:16:24.316Z,49.75
2019-03-18T07:18:58.676Z,49.75
2019-03-18T07:21:32.944Z,48.75
2019-03-18T07:24:07.125Z,48.82
2019-03-18T07:26:41.663Z,48.59
2019-03-18T07:29:16.277Z,48.08
2019-03-18T07:31:50.671Z,46.96
2019-03-18T07:34:23.793Z,46.56
2019-03-18T07:36:57.946Z,45.71
2019-03-18T07:39:32.282Z,46.05
2019-03-18T07:42:06.664Z,45.53
2019-03-18T07:44:41.106Z,46.40
2019-03-18T07:47:15.660Z,47.52
2019-03-18T07:49:50.100Z,45.74
2019-03-18T07:56:41.715Z,42.20
2019-03-18T07:59:14.865Z,40.70
2019-03-18T08:01:49.130Z,38.79
2019-03-18T08:04:23.643Z,35.92
2019-03-18T08:06:57.944Z,33.98
2019-03-18T08:09:32.606Z,34.25
2019-03-18T08:12:06.936Z,33.24
2019-03-18T08:14:41.618Z,32.60
2019-03-18T08:17:16.076Z,32.00
2019-03-18T08:19:50.667Z,35.19
2019-03-18T08:22:26.122Z,35.19
2019-03-18T08:25:00.605Z,37.73
2019-03-18T08:27:34.942Z,37.73
2019-03-18T08:30:09.711Z,39.95
2019-03-18T08:32:44.096Z,41.90
2019-03-18T08:35:18.643Z,40.55
2019-03-18T08:37:54.853Z,40.55
2019-03-18T08:40:29.278Z,42.32
2019-03-18T08:43:03.692Z,42.32
2019-03-18T08:45:38.069Z,43.71
2019-03-18T08:48:12.635Z,44.22
2019-03-18T08:50:47.058Z,44.21
2019-03-18T08:53:21.721Z,44.17
2019-03-18T08:55:56.305Z,44.26
2019-03-18T08:58:30.782Z,44.51
2019-03-18T09:01:03.779Z,44.47
2019-03-18T09:03:37.918Z,45.69
2019-03-18T09:06:11.787Z,45.66
2019-03-18T09:08:45.943Z,45.83
2019-03-18T09:11:18.854Z,46.00
2019-03-18T09:13:53.114Z,46.43
2019-03-18T09:16:27.617Z,45.53
2019-03-18T09:19:08.447Z,44.90
2019-03-18T09:21:37.929Z,44.90
2019-03-18T09:24:12.082Z,45.13
2019-03-18T09:26:46.609Z,45.11
2019-03-18T09:29:20.943Z,45.11
2019-03-18T09:31:55.115Z,45.86
2019-03-18T09:34:30.340Z,46.12
2019-03-18T09:37:04.689Z,46.79
2019-03-18T09:39:38.937Z,46.34
2019-03-18T09:42:13.278Z,45.75
2019-03-18T09:44:47.660Z,45.19
2019-03-18T09:47:21.935Z,44.79
2019-03-18T09:49:56.093Z,43.47
2019-03-18T09:52:30.367Z,44.40
2019-03-18T09:55:04.872Z,44.40
2019-03-18T09:57:37.770Z,43.57
2019-03-18T10:00:12.519Z,41.70
2019-03-18T10:02:46.925Z,39.36
2019-03-18T10:05:21.283Z,36.80
2019-03-18T10:07:55.889Z,39.14
2019-03-18T10:10:28.799Z,39.14
2019-03-18T10:13:02.954Z,40.13
2019-03-18T10:15:35.862Z,40.78
2019-03-18T10:18:10.245Z,41.38
2019-03-18T10:20:44.766Z,42.30
2019-03-18T10:23:19.103Z,42.80
2019-03-18T10:25:53.343Z,43.71
2019-03-18T10:28:27.697Z,43.71
2019-03-18T10:31:02.116Z,42.97
2019-03-18T10:33:36.641Z,41.37
2019-03-18T10:36:11.091Z,41.37
2019-03-18T10:38:45.673Z,40.53
2019-03-18T10:41:20.093Z,40.53
2019-03-18T10:43:54.683Z,41.13
2019-03-18T10:46:29.111Z,41.13
2019-03-18T10:49:03.690Z,40.15
2019-03-18T10:51:36.813Z,40.15
2019-03-18T10:54:10.985Z,40.37
2019-03-18T10:56:45.651Z,41.12
2019-03-18T10:59:20.108Z,41.14
2019-03-18T11:01:54.324Z,43.03
2019-03-18T11:04:28.678Z,43.03
2019-03-18T11:07:03.118Z,42.48
2019-03-18T11:09:37.684Z,41.32
2019-03-18T11:12:12.185Z,39.91
2019-03-18T11:14:46.720Z,39.13
2019-03-18T11:17:21.086Z,39.04
2019-03-18T11:19:58.696Z,35.05
2019-03-18T11:22:31.339Z,35.70
2019-03-18T11:25:06.262Z,35.70
2019-03-18T11:27:40.721Z,37.99
2019-03-18T11:30:15.791Z,39.83
2019-03-18T11:32:50.109Z,41.27
2019-03-18T11:35:24.638Z,41.07
2019-03-18T11:37:59.105Z,41.07
2019-03-18T11:40:33.301Z,42.36
2019-03-18T11:43:07.697Z,42.36
2019-03-18T11:45:42.926Z,42.64
2019-03-18T11:48:17.275Z,42.76
2019-03-18T11:50:51.660Z,43.13
2019-03-18T11:53:25.956Z,43.62
2019-03-18T11:55:58.880Z,43.19
2019-03-18T11:58:33.136Z,43.54
2019-03-18T12:01:07.691Z,44.05
2019-03-18T12:03:41.946Z,44.05
2019-03-18T12:06:16.263Z,44.35
2019-03-18T12:08:50.672Z,43.89
2019-03-18T12:11:25.101Z,42.92
2019-03-18T12:14:00.683Z,42.92
2019-03-18T12:16:35.246Z,42.15
2019-03-18T12:19:09.652Z,37.46
2019-03-18T12:21:43.947Z,33.66
2019-03-18T12:24:18.264Z,31.62
2019-03-18T12:26:52.699Z,29.00
2019-03-18T12:29:27.116Z,29.17
2019-03-18T12:32:01.289Z,27.55
2019-03-18T12:34:35.707Z,26.74
2019-03-18T12:37:10.282Z,26.74
2019-03-18T12:39:44.679Z,24.63
2019-03-18T12:42:18.959Z,23.67
2019-03-18T12:44:53.106Z,23.66
2019-03-18T12:47:27.668Z,29.36
2019-03-18T12:50:02.109Z,31.09
2019-03-18T12:52:36.722Z,31.09
2019-03-18T12:55:09.645Z,31.96
2019-03-18T12:57:43.941Z,33.56
2019-03-18T13:00:23.281Z,34.12
2019-03-18T13:02:57.735Z,34.32
2019-03-18T13:05:31.939Z,33.81
2019-03-18T13:08:04.768Z,33.54
2019-03-18T13:10:38.949Z,32.24
2019-03-18T13:13:13.137Z,32.24
2019-03-18T13:15:47.692Z,31.50
2019-03-18T13:18:22.075Z,27.07
2019-03-18T13:21:07.262Z,27.55
2019-03-18T13:23:32.795Z,27.72
2019-03-18T13:26:05.788Z,26.02
2019-03-18T13:28:39.948Z,24.02
2019-03-18T13:31:14.312Z,23.01
2019-03-18T13:33:48.754Z,23.01
2019-03-18T13:36:25.339Z,27.49
2019-03-18T13:38:59.121Z,30.06
2019-03-18T13:41:33.311Z,34.43
2019-03-18T13:44:07.924Z,34.43
2019-03-18T13:46:42.256Z,37.42
2019-03-18T13:49:16.710Z,42.54
2019-03-18T13:51:51.066Z,47.27
2019-03-18T13:54:25.328Z,53.87
2019-03-18T13:56:59.746Z,53.87
2019-03-18T13:59:34.101Z,55.39
2019-03-18T14:02:08.696Z,58.45
2019-03-18T14:04:43.283Z,58.45
2019-03-18T14:07:17.701Z,59.15
2019-03-18T14:09:52.020Z,58.83
2019-03-18T14:12:26.356Z,42.70
2019-03-18T14:15:00.886Z,42.70
2019-03-18T14:17:35.129Z,45.21
2019-03-18T14:20:10.681Z,50.55
2019-03-18T14:22:45.250Z,49.82
2019-03-18T14:25:19.777Z,41.52
2019-03-18T14:27:52.689Z,37.79
2019-03-18T14:30:26.945Z,34.56
2019-03-18T14:33:01.281Z,31.68
2019-03-18T14:35:35.729Z,29.77
2019-03-18T14:38:10.089Z,29.67
2019-03-18T14:40:44.681Z,27.77
2019-03-18T14:43:19.271Z,27.21
2019-03-18T14:45:53.682Z,26.07
2019-03-18T14:48:27.942Z,25.05
2019-03-18T14:51:02.332Z,25.05
2019-03-18T14:53:36.677Z,24.41
2019-03-18T14:56:10.946Z,23.64
2019-03-18T14:58:45.109Z,24.48
2019-03-18T15:01:19.694Z,24.94
2019-03-18T15:03:52.657Z,27.23
2019-03-18T15:06:26.949Z,27.23
2019-03-18T15:09:01.320Z,31.10
2019-03-18T15:11:36.943Z,31.10
2019-03-18T15:14:11.128Z,31.58
2019-03-18T15:16:45.632Z,26.72
2019-03-18T15:19:19.941Z,26.72
2019-03-18T15:21:58.697Z,25.33
2019-03-18T15:24:30.628Z,25.04
2019-03-18T15:27:05.108Z,25.04
2019-03-18T15:29:40.706Z,24.23
2019-03-18T15:33:47.314Z,23.79
2019-03-18T15:36:21.948Z,24.04
2019-03-18T15:38:55.016Z,23.76
2019-03-18T15:41:28.044Z,24.05
2019-03-18T15:44:02.285Z,24.42
2019-03-18T15:46:36.887Z,25.44
2019-03-18T15:49:09.869Z,25.39
2019-03-18T15:51:44.256Z,24.63
2019-03-18T15:54:18.714Z,25.01
2019-03-18T15:56:53.102Z,26.02
2019-03-18T15:59:27.632Z,29.48
2019-03-18T16:02:03.099Z,29.48
2019-03-18T16:04:37.684Z,34.02
2019-03-18T16:07:12.107Z,34.02
2019-03-18T16:09:46.723Z,36.83
2019-03-18T16:12:21.205Z,38.17
2019-03-18T16:14:55.737Z,38.17
2019-03-18T16:17:28.814Z,40.52
2019-03-18T16:20:05.274Z,42.34
2019-03-18T16:22:40.101Z,47.20
2019-03-18T16:25:15.286Z,53.44
2019-03-18T16:27:49.946Z,56.73
2019-03-18T16:30:24.294Z,57.04
2019-03-18T16:32:59.163Z,57.00
2019-03-18T16:35:33.878Z,54.74
2019-03-18T16:38:07.076Z,54.74
2019-03-18T16:40:41.278Z,54.54
2019-03-18T16:43:16.281Z,55.51
2019-03-18T16:45:50.776Z,57.13
2019-03-18T16:48:25.282Z,58.85
2019-03-18T16:50:59.921Z,58.85
2019-03-18T16:53:33.246Z,60.04
2019-03-18T16:56:07.701Z,61.08
2019-03-18T16:58:40.757Z,61.08
2019-03-18T17:01:14.949Z,60.94
2019-03-18T17:03:49.275Z,61.09
2019-03-18T17:06:23.746Z,60.97
2019-03-18T17:08:57.119Z,61.48
2019-03-18T17:11:31.680Z,61.20
2019-03-18T17:14:06.359Z,60.66
2019-03-18T17:16:41.272Z,61.25
2019-03-18T17:19:15.712Z,61.50
2019-03-18T17:21:50.267Z,61.67
2019-03-18T17:24:24.285Z,62.03
2019-03-18T17:26:58.993Z,61.96
2019-03-18T17:29:33.760Z,61.59
2019-03-18T17:32:06.668Z,60.41
2019-03-18T17:34:41.104Z,60.41
2019-03-18T17:37:15.651Z,60.74
2019-03-18T17:39:50.278Z,60.74
2019-03-18T17:42:24.685Z,60.75
2019-03-18T17:44:59.092Z,60.25
2019-03-18T17:47:33.623Z,60.37
2019-03-18T17:50:09.308Z,60.37
2019-03-18T17:52:43.853Z,60.29
2019-03-18T17:55:17.141Z,60.29
2019-03-18T17:57:51.640Z,59.89
2019-03-18T18:00:32.572Z,59.89
2019-03-18T18:03:05.845Z,59.30
2019-03-18T18:05:40.329Z,59.05
2019-03-18T18:08:14.953Z,58.74
2019-03-18T18:10:51.281Z,58.35
2019-03-18T18:13:25.882Z,58.04
2019-03-18T18:15:59.079Z,57.50
2019-03-18T18:18:31.871Z,57.09
2019-03-18T18:21:06.270Z,57.40
2019-03-18T18:23:40.941Z,57.50
2019-03-18T18:26:15.315Z,58.01
2019-03-18T18:28:49.877Z,58.26
2019-03-18T18:31:22.856Z,58.22
2019-03-18T18:33:57.268Z,58.16
2019-03-18T18:36:31.691Z,58.53
2019-03-18T18:39:07.665Z,58.53
2019-03-18T18:41:42.267Z,58.64
2019-03-18T18:44:16.736Z,58.93
2019-03-18T18:46:51.247Z,59.19
2019-03-18T18:49:25.718Z,59.38
2019-03-18T18:52:00.122Z,59.90
2019-03-18T18:54:34.942Z,59.97
2019-03-18T18:57:09.268Z,60.01
2019-03-18T18:59:43.703Z,59.77
2019-03-18T19:02:18.280Z,59.91
2019-03-18T19:04:52.767Z,59.82
2019-03-18T19:07:27.342Z,60.20
2019-03-18T19:10:02.112Z,60.20
2019-03-18T19:12:37.838Z,60.52
2019-03-18T19:15:14.047Z,60.42
2019-03-18T19:17:48.345Z,60.42
2019-03-18T19:20:22.848Z,60.65
2019-03-18T19:22:57.280Z,60.60
2019-03-18T19:25:31.647Z,60.22
2019-03-18T19:28:06.323Z,59.65
2019-03-18T19:30:41.941Z,59.69
2019-03-18T19:33:16.356Z,59.51
2019-03-18T19:35:51.163Z,59.29
2019-03-18T19:38:25.752Z,59.49
2019-03-18T19:40:58.880Z,59.23
2019-03-18T19:43:33.281Z,59.06
2019-03-18T19:46:08.280Z,58.67
2019-03-18T19:48:42.744Z,57.97
2019-03-18T19:51:17.135Z,57.97
2019-03-18T19:53:51.635Z,58.25
2019-03-18T19:56:26.285Z,58.78
2019-03-18T19:59:00.865Z,58.78
2019-03-18T20:01:35.327Z,59.11
2019-03-18T20:04:09.870Z,58.96
2019-03-18T20:06:44.281Z,58.68
2019-03-18T20:09:19.322Z,58.71
2019-03-18T20:11:53.954Z,58.89
2019-03-18T20:14:28.273Z,58.75
2019-03-18T20:17:03.267Z,58.89
2019-03-18T20:19:37.938Z,58.62
2019-03-18T20:22:10.813Z,58.73
2019-03-18T20:24:46.277Z,58.48
2019-03-18T20:27:20.680Z,58.29
2019-03-18T20:29:55.169Z,58.38
2019-03-18T20:32:29.686Z,58.31
2019-03-18T20:35:04.277Z,58.31
2019-03-18T20:37:38.940Z,58.25
2019-03-18T20:40:14.704Z,57.96
2019-03-18T20:42:50.286Z,57.92
2019-03-18T20:45:26.108Z,57.91
2019-03-18T20:48:01.300Z,58.07
2019-03-18T20:50:35.965Z,57.89
2019-03-18T20:53:10.399Z,58.13
2019-03-18T20:55:44.942Z,58.38
2019-03-18T20:58:19.282Z,58.80
2019-03-18T21:00:53.939Z,58.94
2019-03-18T21:03:28.269Z,58.99
2019-03-18T21:06:02.777Z,59.52
2019-03-18T21:08:35.702Z,59.72
2019-03-18T21:11:10.146Z,59.68
2019-03-18T21:13:44.703Z,59.86
2019-03-18T21:16:19.287Z,59.86
2019-03-18T21:18:53.718Z,60.04
2019-03-18T21:21:29.111Z,59.94
2019-03-18T21:24:03.707Z,59.95
2019-03-18T21:26:37.857Z,60.19
2019-03-18T21:29:27.720Z,60.61
2019-03-18T21:32:02.290Z,60.61
2019-03-18T21:34:36.934Z,60.83
2019-03-18T21:37:11.867Z,61.36
2019-03-18T21:39:46.638Z,61.96
2019-03-18T21:42:20.948Z,61.96
2019-03-18T21:44:56.473Z,62.15
2019-03-18T21:47:30.942Z,62.41
2019-03-18T21:50:05.573Z,62.73
2019-03-18T21:52:39.965Z,62.73
2019-03-18T21:55:14.747Z,62.71
2019-03-18T21:57:47.885Z,62.66
2019-03-18T22:00:22.285Z,62.49
2019-03-18T22:02:56.761Z,62.21
2019-03-18T22:05:31.269Z,62.30
2019-03-18T22:08:05.719Z,61.75
2019-03-18T22:10:40.202Z,61.73
2019-03-18T22:14:15.893Z,61.28
2019-03-18T22:16:49.286Z,60.69
2019-03-18T22:19:23.707Z,60.69
2019-03-18T22:21:59.152Z,60.69
2019-03-18T22:24:44.554Z,61.24
2019-03-18T22:27:10.111Z,61.24
2019-03-18T22:29:45.061Z,61.23
2019-03-18T22:32:19.307Z,60.75
2019-03-18T22:34:53.712Z,60.91
2019-03-18T22:37:28.370Z,60.99
2019-03-18T22:40:02.959Z,61.04
2019-03-18T22:42:37.649Z,61.02
2019-03-18T22:45:12.660Z,61.02
2019-03-18T22:47:47.131Z,60.92
2019-03-18T22:50:22.778Z,60.81
2019-03-18T22:52:57.289Z,60.44
2019-03-18T22:55:32.751Z,60.58
2019-03-18T22:58:07.288Z,60.84
2019-03-18T23:02:14.972Z,61.24
2019-03-18T23:04:50.291Z,61.16
2019-03-18T23:07:25.202Z,61.08
2019-03-18T23:09:59.801Z,61.23
2019-03-18T23:12:34.303Z,60.60
2019-03-18T23:15:09.950Z,60.19
2019-03-18T23:17:44.893Z,59.97
2019-03-18T23:20:19.295Z,59.97
2019-03-18T23:22:53.932Z,59.54
2019-03-18T23:25:28.648Z,59.28
2019-03-18T23:28:02.020Z,59.35
2019-03-18T23:30:37.696Z,59.93
2019-03-18T23:33:10.897Z,59.93
2019-03-18T23:35:44.295Z,59.89
2019-03-18T23:38:18.976Z,59.94
2019-03-18T23:40:53.745Z,59.83
2019-03-18T23:43:26.720Z,60.29
2019-03-18T23:46:01.206Z,60.29
2019-03-18T23:48:35.863Z,60.45
2019-03-18T23:51:10.708Z,60.13
2019-03-18T23:53:46.118Z,59.90
2019-03-18T23:56:20.742Z,60.16
2019-03-18T23:58:54.289Z,60.16
